createdAt,value
2023-05-05T00:00:29.963Z,990.89
2023-05-05T00:01:30.264Z,990.91
2023-05-05T00:03:35.837Z,990.91
2023-05-05T00:04:50.592Z,990.9
2023-05-05T00:13:55.835Z,990.83
2023-05-05T00:14:57.338Z,990.77
2023-05-05T00:15:59.062Z,990.79
2023-05-05T00:17:00.833Z,990.86
2023-05-05T00:18:02.524Z,990.87
2023-05-05T00:19:04.252Z,990.89
2023-05-05T00:20:06.177Z,990.89
2023-05-05T00:21:07.765Z,990.87
2023-05-05T00:22:09.472Z,990.83
2023-05-05T00:23:11.267Z,990.81
2023-05-05T00:24:12.939Z,990.81
2023-05-05T00:25:14.671Z,990.84
2023-05-05T00:26:16.409Z,990.77
2023-05-05T00:27:18.114Z,990.78
2023-05-05T00:28:19.870Z,990.77
2023-05-05T00:29:21.580Z,990.72
2023-05-05T00:30:23.344Z,990.79
2023-05-05T00:31:25.118Z,990.75
2023-05-05T00:32:26.815Z,990.74
2023-05-05T00:33:28.544Z,990.74
2023-05-05T00:34:30.290Z,990.75
2023-05-05T00:35:32.008Z,990.71
2023-05-05T00:36:33.744Z,990.71
2023-05-05T00:37:35.465Z,990.7
2023-05-05T00:38:37.218Z,990.7
2023-05-05T00:39:38.942Z,990.7
2023-05-05T00:40:40.683Z,990.72
2023-05-05T00:41:42.425Z,990.69
2023-05-05T00:42:44.131Z,990.68
2023-05-05T00:43:45.864Z,990.67
2023-05-05T00:44:47.590Z,990.58
2023-05-05T00:45:49.348Z,990.59
2023-05-05T00:46:51.255Z,990.58
2023-05-05T00:47:52.854Z,990.55
2023-05-05T00:48:54.593Z,990.53
2023-05-05T00:49:56.285Z,990.52
2023-05-05T00:50:58.040Z,990.41
2023-05-05T00:51:59.750Z,990.32
2023-05-05T00:53:01.515Z,990.25
2023-05-05T00:54:03.198Z,990.17
2023-05-05T00:55:05.139Z,990.16
2023-05-05T00:56:06.696Z,990.17
2023-05-05T00:57:08.424Z,990.24
2023-05-05T00:58:10.165Z,990.26
2023-05-05T00:59:11.868Z,990.29
2023-05-05T01:00:13.636Z,990.27
2023-05-05T01:01:15.600Z,990.27
2023-05-05T01:02:17.083Z,990.27
2023-05-05T01:03:18.912Z,990.29
2023-05-05T01:04:20.578Z,990.31
2023-05-05T01:05:22.282Z,990.32
2023-05-05T01:06:24.038Z,990.29
2023-05-05T01:07:25.751Z,990.29
2023-05-05T01:08:27.530Z,990.3
2023-05-05T01:09:29.222Z,990.34
2023-05-05T01:10:31.059Z,990.38
2023-05-05T01:11:32.692Z,990.4
2023-05-05T01:12:34.467Z,990.39
2023-05-05T01:13:36.154Z,990.4
2023-05-05T01:14:37.871Z,990.41
2023-05-05T01:15:39.635Z,990.41
2023-05-05T01:16:41.374Z,990.39
2023-05-05T01:17:43.116Z,990.42
2023-05-05T01:18:44.820Z,990.47
2023-05-05T01:19:46.582Z,990.47
2023-05-05T01:20:48.278Z,990.48
2023-05-05T01:21:50.018Z,990.5
2023-05-05T01:22:51.747Z,990.5
2023-05-05T01:23:53.527Z,990.55
2023-05-05T01:24:55.236Z,990.57
2023-05-05T01:25:56.960Z,990.56
2023-05-05T01:26:58.676Z,990.55
2023-05-05T01:28:00.454Z,990.55
2023-05-05T01:29:02.154Z,990.58
2023-05-05T01:30:03.902Z,990.55
2023-05-05T01:31:05.644Z,990.59
2023-05-05T01:32:07.340Z,990.55
2023-05-05T01:33:09.081Z,990.57
2023-05-05T01:34:10.812Z,990.59
2023-05-05T01:35:12.589Z,990.59
2023-05-05T01:36:14.294Z,990.56
2023-05-05T01:37:16.034Z,990.55
2023-05-05T01:38:17.759Z,990.57
2023-05-05T01:39:19.486Z,990.58
2023-05-05T01:40:21.248Z,990.6
2023-05-05T01:41:22.971Z,990.61
2023-05-05T01:42:24.702Z,990.6
2023-05-05T01:43:26.425Z,990.56
2023-05-05T01:44:28.168Z,990.52
2023-05-05T01:45:29.909Z,990.52
2023-05-05T01:46:31.606Z,990.53
2023-05-05T01:47:33.373Z,990.54
2023-05-05T01:48:35.091Z,990.56
2023-05-05T01:49:36.820Z,990.54
2023-05-05T01:50:38.554Z,990.58
2023-05-05T01:51:40.285Z,990.53
2023-05-05T01:52:42.042Z,990.53
2023-05-05T01:53:43.761Z,990.57
2023-05-05T01:54:45.485Z,990.57
2023-05-05T01:55:47.236Z,990.6
2023-05-05T01:56:48.946Z,990.63
2023-05-05T01:57:50.693Z,990.69
2023-05-05T01:58:52.440Z,990.68
2023-05-05T01:59:54.171Z,990.68
2023-05-05T02:00:55.899Z,990.7
2023-05-05T02:01:58.097Z,990.7
2023-05-05T02:02:59.472Z,990.75
2023-05-05T02:04:01.086Z,990.74
2023-05-05T02:05:02.817Z,990.79
2023-05-05T02:06:04.597Z,990.74
2023-05-05T02:07:06.308Z,990.73
2023-05-05T02:08:08.030Z,990.66
2023-05-05T02:09:09.783Z,990.65
2023-05-05T02:10:11.476Z,990.65
2023-05-05T02:11:13.217Z,990.63
2023-05-05T02:12:14.950Z,990.66
2023-05-05T02:13:16.866Z,990.68
2023-05-05T02:14:18.447Z,990.72
2023-05-05T02:15:20.182Z,990.72
2023-05-05T02:16:22.021Z,990.72
2023-05-05T02:17:23.770Z,990.73
2023-05-05T02:18:25.382Z,990.72
2023-05-05T02:19:27.098Z,990.73
2023-05-05T02:20:28.850Z,990.75
2023-05-05T02:21:30.579Z,990.73
2023-05-05T02:22:32.299Z,990.73
2023-05-05T02:23:34.040Z,990.73
2023-05-05T02:24:35.779Z,990.74
2023-05-05T02:25:37.510Z,990.73
2023-05-05T02:26:39.246Z,990.68
2023-05-05T02:27:40.988Z,990.67
2023-05-05T02:28:42.710Z,990.67
2023-05-05T02:29:44.444Z,990.69
2023-05-05T02:30:46.184Z,990.69
2023-05-05T02:31:48.103Z,990.73
2023-05-05T02:32:49.981Z,990.79
2023-05-05T02:33:51.374Z,990.78
2023-05-05T02:34:53.088Z,990.8
2023-05-05T02:35:54.841Z,990.74
2023-05-05T02:36:56.576Z,990.78
2023-05-05T02:37:58.305Z,990.8
2023-05-05T02:39:00.041Z,990.78
2023-05-05T02:40:01.854Z,990.82
2023-05-05T02:41:03.528Z,990.83
2023-05-05T02:42:05.258Z,990.83
2023-05-05T02:43:07.020Z,990.81
2023-05-05T02:44:08.734Z,990.8
2023-05-05T02:45:10.500Z,990.8
2023-05-05T02:46:12.329Z,990.82
2023-05-05T02:47:13.922Z,990.76
2023-05-05T02:48:15.651Z,990.75
2023-05-05T02:49:17.396Z,990.77
2023-05-05T02:50:19.124Z,990.73
2023-05-05T02:51:20.857Z,990.74
2023-05-05T02:52:22.590Z,990.77
2023-05-05T02:53:24.337Z,990.76
2023-05-05T02:54:26.064Z,990.81
2023-05-05T02:55:27.802Z,990.84
2023-05-05T02:56:29.534Z,990.81
2023-05-05T02:57:31.252Z,990.79
2023-05-05T02:58:33.027Z,990.84
2023-05-05T02:59:34.781Z,990.84
2023-05-05T03:00:36.488Z,990.84
2023-05-05T03:01:38.246Z,990.85
2023-05-05T03:02:40.069Z,990.88
2023-05-05T03:03:41.817Z,990.93
2023-05-05T03:04:43.392Z,990.93
2023-05-05T03:05:45.116Z,990.92
2023-05-05T03:06:46.862Z,990.93
2023-05-05T03:07:48.522Z,990.9
2023-05-05T03:08:50.339Z,990.9
2023-05-05T03:09:52.068Z,990.86
2023-05-05T03:10:53.791Z,990.88
2023-05-05T03:11:55.521Z,990.82
2023-05-05T03:12:57.285Z,990.87
2023-05-05T03:13:59.011Z,990.85
2023-05-05T03:15:00.741Z,990.85
2023-05-05T03:16:02.518Z,990.86
2023-05-05T03:17:04.216Z,990.84
2023-05-05T03:18:05.954Z,990.84
2023-05-05T03:19:07.673Z,990.87
2023-05-05T03:20:09.542Z,990.82
2023-05-05T03:21:11.129Z,990.87
2023-05-05T03:22:12.883Z,990.86
2023-05-05T03:23:14.618Z,990.89
2023-05-05T03:24:16.348Z,990.8
2023-05-05T03:25:18.065Z,990.85
2023-05-05T03:26:19.849Z,990.85
2023-05-05T03:27:21.564Z,990.81
2023-05-05T03:28:23.340Z,990.87
2023-05-05T03:29:25.035Z,990.82
2023-05-05T03:30:26.737Z,990.79
2023-05-05T03:31:28.675Z,990.81
2023-05-05T03:32:30.222Z,990.81
2023-05-05T03:33:31.941Z,990.8
2023-05-05T03:34:33.673Z,990.83
2023-05-05T03:35:35.401Z,990.81
2023-05-05T03:36:37.151Z,990.85
2023-05-05T03:37:38.874Z,990.81
2023-05-05T03:38:40.611Z,990.87
2023-05-05T03:39:42.353Z,990.85
2023-05-05T03:40:44.937Z,990.86
2023-05-05T03:41:45.834Z,990.8
2023-05-05T03:42:47.519Z,990.83
2023-05-05T03:43:49.283Z,990.84
2023-05-05T03:44:51.024Z,990.82
2023-05-05T03:45:52.789Z,990.83
2023-05-05T03:46:54.482Z,990.81
2023-05-05T03:47:56.270Z,990.83
2023-05-05T03:48:57.936Z,990.88
2023-05-05T03:49:59.701Z,990.9
2023-05-05T03:51:01.420Z,990.95
2023-05-05T03:52:03.161Z,990.95
2023-05-05T03:53:04.926Z,990.95
2023-05-05T03:54:06.604Z,990.9
2023-05-05T03:55:08.360Z,990.97
2023-05-05T03:56:10.093Z,991.01
2023-05-05T03:57:11.814Z,990.98
2023-05-05T03:58:13.578Z,990.94
2023-05-05T03:59:15.290Z,990.97
2023-05-05T04:00:17.088Z,990.96
2023-05-05T04:01:18.795Z,990.97
2023-05-05T04:02:20.610Z,990.97
2023-05-05T04:03:22.731Z,990.97
2023-05-05T04:04:24.066Z,990.96
2023-05-05T04:05:25.701Z,990.95
2023-05-05T04:06:27.428Z,990.92
2023-05-05T04:07:29.158Z,990.94
2023-05-05T04:08:30.898Z,990.91
2023-05-05T04:09:32.625Z,990.92
2023-05-05T04:10:34.434Z,990.91
2023-05-05T04:11:36.113Z,990.91
2023-05-05T04:12:37.867Z,990.9
2023-05-05T04:13:39.566Z,990.9
2023-05-05T04:14:41.303Z,990.9
2023-05-05T04:15:43.111Z,990.98
2023-05-05T04:16:44.901Z,991.03
2023-05-05T04:17:46.543Z,990.98
2023-05-05T04:18:48.233Z,991.01
2023-05-05T04:19:49.959Z,990.99
2023-05-05T04:20:51.684Z,991.02
2023-05-05T04:21:53.552Z,990.97
2023-05-05T04:22:55.165Z,991.03
2023-05-05T04:23:56.944Z,991.03
2023-05-05T04:24:58.665Z,990.99
2023-05-05T04:26:00.375Z,991.06
2023-05-05T04:27:02.126Z,991.09
2023-05-05T04:28:03.838Z,991.09
2023-05-05T04:29:05.667Z,991.1
2023-05-05T04:30:07.464Z,991.08
2023-05-05T04:31:09.057Z,991.11
2023-05-05T04:32:10.794Z,991.07
2023-05-05T04:33:12.524Z,991.07
2023-05-05T04:34:14.253Z,991.03
2023-05-05T04:35:15.977Z,991.05
2023-05-05T04:36:17.708Z,991.06
2023-05-05T04:37:19.505Z,991.03
2023-05-05T04:38:21.304Z,991.06
2023-05-05T04:39:22.915Z,991.06
2023-05-05T04:40:24.636Z,991.1
2023-05-05T04:41:28.187Z,991.09
2023-05-05T04:42:28.115Z,991.1
2023-05-05T04:43:29.847Z,991.15
2023-05-05T04:44:31.561Z,991.08
2023-05-05T04:45:33.306Z,991.12
2023-05-05T04:46:35.158Z,991.13
2023-05-05T04:47:36.823Z,991.12
2023-05-05T04:48:38.537Z,991.11
2023-05-05T04:49:40.243Z,991.12
2023-05-05T04:50:41.996Z,991.11
2023-05-05T04:51:43.726Z,991.12
2023-05-05T04:52:45.469Z,991.16
2023-05-05T04:53:47.318Z,991.21
2023-05-05T04:54:48.932Z,991.14
2023-05-05T04:55:50.648Z,991.19
2023-05-05T04:56:52.386Z,991.21
2023-05-05T04:57:54.117Z,991.2
2023-05-05T04:58:55.845Z,991.17
2023-05-05T04:59:57.586Z,991.21
2023-05-05T05:00:59.356Z,991.2
2023-05-05T05:02:01.244Z,991.19
2023-05-05T05:03:02.911Z,991.19
2023-05-05T05:04:04.642Z,991.23
2023-05-05T05:05:06.393Z,991.16
2023-05-05T05:06:08.011Z,991.22
2023-05-05T05:07:09.727Z,991.22
2023-05-05T05:08:11.463Z,991.18
2023-05-05T05:09:13.293Z,991.2
2023-05-05T05:10:14.912Z,991.22
2023-05-05T05:11:16.668Z,991.24
2023-05-05T05:12:18.384Z,991.27
2023-05-05T05:13:20.277Z,991.26
2023-05-05T05:14:21.911Z,991.26
2023-05-05T05:15:23.602Z,991.31
2023-05-05T05:16:25.435Z,991.3
2023-05-05T05:17:27.139Z,991.25
2023-05-05T05:18:28.863Z,991.29
2023-05-05T05:19:30.533Z,991.31
2023-05-05T05:20:32.275Z,991.28
2023-05-05T05:21:39.805Z,991.29
2023-05-05T05:22:40.899Z,991.27
2023-05-05T05:23:42.632Z,991.23
2023-05-05T05:24:44.343Z,991.3
2023-05-05T05:25:46.086Z,991.26
2023-05-05T05:26:47.826Z,991.28
2023-05-05T05:27:58.516Z,991.3
2023-05-05T05:28:51.289Z,991.3
2023-05-05T05:29:53.038Z,991.29
2023-05-05T05:30:54.743Z,991.32
2023-05-05T05:31:56.533Z,991.35
2023-05-05T05:32:58.279Z,991.33
2023-05-05T05:33:59.949Z,991.3
2023-05-05T05:35:01.699Z,991.34
2023-05-05T05:36:03.438Z,991.31
2023-05-05T05:37:05.172Z,991.3
2023-05-05T05:38:06.887Z,991.28
2023-05-05T05:39:08.696Z,991.33
2023-05-05T05:40:10.492Z,991.39
2023-05-05T05:41:12.179Z,991.38
2023-05-05T05:42:13.828Z,991.36
2023-05-05T05:43:15.568Z,991.36
2023-05-05T05:44:17.292Z,991.4
2023-05-05T05:45:19.015Z,991.36
2023-05-05T05:46:20.867Z,991.36
2023-05-05T05:47:22.496Z,991.35
2023-05-05T05:48:24.260Z,991.36
2023-05-05T05:49:25.995Z,991.35
2023-05-05T05:50:27.690Z,991.38
2023-05-05T05:51:29.422Z,991.39
2023-05-05T05:52:31.163Z,991.35
2023-05-05T05:53:32.908Z,991.32
2023-05-05T05:54:34.631Z,991.37
2023-05-05T05:55:36.363Z,991.35
2023-05-05T05:56:38.103Z,991.38
2023-05-05T05:57:39.850Z,991.4
2023-05-05T05:58:41.564Z,991.41
2023-05-05T05:59:43.303Z,991.39
2023-05-05T06:00:45.044Z,991.41
2023-05-05T06:01:46.777Z,991.42
2023-05-05T06:03:01.003Z,991.41
2023-05-05T06:04:05.745Z,991.46
2023-05-05T06:05:07.411Z,991.46
2023-05-05T06:06:09.157Z,991.51
2023-05-05T06:07:10.874Z,991.42
2023-05-05T06:08:12.596Z,991.5
2023-05-05T06:09:14.324Z,991.55
2023-05-05T06:10:27.264Z,991.48
2023-05-05T06:11:17.809Z,991.45
2023-05-05T06:12:19.541Z,991.51
2023-05-05T06:13:21.283Z,991.54
2023-05-05T06:14:23.022Z,991.52
2023-05-05T06:15:24.756Z,991.54
2023-05-05T06:16:26.590Z,991.5
2023-05-05T06:17:28.202Z,991.57
2023-05-05T06:18:29.941Z,991.55
2023-05-05T06:19:31.806Z,991.52
2023-05-05T06:20:33.592Z,991.54
2023-05-05T06:21:35.156Z,991.56
2023-05-05T06:22:36.902Z,991.54
2023-05-05T06:23:38.614Z,991.55
2023-05-05T06:24:40.363Z,991.54
2023-05-05T06:25:42.087Z,991.56
2023-05-05T06:26:43.837Z,991.51
2023-05-05T06:27:45.590Z,991.49
2023-05-05T06:28:47.294Z,991.5
2023-05-05T06:29:49.068Z,991.53
2023-05-05T06:30:50.768Z,991.52
2023-05-05T06:31:52.623Z,991.54
2023-05-05T06:32:54.370Z,991.53
2023-05-05T06:33:55.948Z,991.54
2023-05-05T06:34:57.769Z,991.57
2023-05-05T06:35:59.445Z,991.52
2023-05-05T06:37:01.201Z,991.52
2023-05-05T06:38:02.911Z,991.52
2023-05-05T06:39:04.634Z,991.51
2023-05-05T06:40:06.507Z,991.53
2023-05-05T06:41:08.100Z,991.5
2023-05-05T06:42:09.850Z,991.56
2023-05-05T06:43:11.587Z,991.58
2023-05-05T06:44:13.312Z,991.56
2023-05-05T06:45:15.050Z,991.58
2023-05-05T06:46:16.851Z,991.61
2023-05-05T06:47:18.517Z,991.54
2023-05-05T06:48:20.232Z,991.57
2023-05-05T06:49:21.972Z,991.57
2023-05-05T06:50:23.708Z,991.59
2023-05-05T06:51:25.425Z,991.63
2023-05-05T06:52:27.206Z,991.65
2023-05-05T06:53:28.933Z,991.61
2023-05-05T06:54:30.681Z,991.62
2023-05-05T06:55:32.448Z,991.62
2023-05-05T06:56:34.134Z,991.62
2023-05-05T06:57:35.864Z,991.59
2023-05-05T06:58:37.575Z,991.58
2023-05-05T06:59:39.448Z,991.61
2023-05-05T07:00:41.101Z,991.58
2023-05-05T07:01:42.803Z,991.61
2023-05-05T07:02:44.708Z,991.59
2023-05-05T07:03:46.296Z,991.56
2023-05-05T07:04:48.019Z,991.61
2023-05-05T07:05:49.906Z,991.58
2023-05-05T07:06:51.469Z,991.6
2023-05-05T07:07:53.214Z,991.57
2023-05-05T07:08:54.930Z,991.6
2023-05-05T07:09:56.666Z,991.62
2023-05-05T07:10:58.409Z,991.63
2023-05-05T07:12:00.216Z,991.62
2023-05-05T07:13:01.984Z,991.61
2023-05-05T07:14:03.613Z,991.57
2023-05-05T07:15:19.268Z,991.6
2023-05-05T07:16:07.160Z,991.58
2023-05-05T07:17:08.860Z,991.56
2023-05-05T07:18:10.577Z,991.58
2023-05-05T07:19:12.294Z,991.58
2023-05-05T07:20:14.020Z,991.63
2023-05-05T07:21:15.737Z,991.65
2023-05-05T07:22:17.491Z,991.66
2023-05-05T07:23:19.223Z,991.66
2023-05-05T07:24:20.969Z,991.64
2023-05-05T07:25:22.688Z,991.63
2023-05-05T07:26:24.422Z,991.65
2023-05-05T07:27:26.125Z,991.6
2023-05-05T07:28:27.890Z,991.67
2023-05-05T07:29:29.598Z,991.63
2023-05-05T07:30:31.358Z,991.66
2023-05-05T07:31:33.106Z,991.63
2023-05-05T07:32:34.845Z,991.63
2023-05-05T07:33:36.601Z,991.61
2023-05-05T07:34:38.349Z,991.59
2023-05-05T07:35:40.037Z,991.61
2023-05-05T07:36:41.752Z,991.61
2023-05-05T07:37:43.512Z,991.61
2023-05-05T07:38:45.244Z,991.63
2023-05-05T07:39:46.962Z,991.58
2023-05-05T07:40:48.697Z,991.62
2023-05-05T07:41:50.417Z,991.61
2023-05-05T07:42:52.161Z,991.57
2023-05-05T07:43:53.902Z,991.64
2023-05-05T07:44:55.630Z,991.66
2023-05-05T07:45:57.388Z,991.67
2023-05-05T07:46:59.113Z,991.64
2023-05-05T07:48:00.983Z,991.63
2023-05-05T07:49:02.579Z,991.63
2023-05-05T07:50:04.295Z,991.65
2023-05-05T07:51:06.203Z,991.63
2023-05-05T07:52:07.775Z,991.63
2023-05-05T07:53:14.428Z,991.61
2023-05-05T07:54:11.238Z,991.62
2023-05-05T07:55:13.039Z,991.64
2023-05-05T07:56:14.707Z,991.63
2023-05-05T07:57:16.434Z,991.62
2023-05-05T07:58:18.192Z,991.68
2023-05-05T07:59:19.917Z,991.66
2023-05-05T08:00:21.808Z,991.64
2023-05-05T08:01:23.374Z,991.61
2023-05-05T08:02:25.206Z,991.64
2023-05-05T08:03:27.134Z,991.64
2023-05-05T08:04:31.168Z,991.62
2023-05-05T08:05:35.470Z,991.6
2023-05-05T08:06:37.184Z,991.53
2023-05-05T08:07:38.934Z,991.57
2023-05-05T08:08:40.662Z,991.56
2023-05-05T08:09:42.396Z,991.56
2023-05-05T08:10:44.151Z,991.52
2023-05-05T08:11:45.889Z,991.57
2023-05-05T08:12:47.669Z,991.56
2023-05-05T08:13:49.353Z,991.61
2023-05-05T08:14:51.076Z,991.62
2023-05-05T08:15:52.909Z,991.64
2023-05-05T08:16:54.536Z,991.62
2023-05-05T08:17:56.421Z,991.65
2023-05-05T08:18:58.025Z,991.63
2023-05-05T08:19:59.733Z,991.64
2023-05-05T08:21:01.475Z,991.65
2023-05-05T08:22:03.219Z,991.66
2023-05-05T08:23:05.005Z,991.71
2023-05-05T08:24:06.706Z,991.72
2023-05-05T08:25:08.610Z,991.68
2023-05-05T08:26:10.141Z,991.68
2023-05-05T08:27:11.871Z,991.71
2023-05-05T08:28:13.601Z,991.65
2023-05-05T08:29:15.369Z,991.68
2023-05-05T08:30:17.089Z,991.66
2023-05-05T08:31:18.869Z,991.67
2023-05-05T08:32:20.533Z,991.66
2023-05-05T08:33:22.284Z,991.68
2023-05-05T08:34:24.030Z,991.64
2023-05-05T08:35:25.748Z,991.61
2023-05-05T08:36:27.477Z,991.6
2023-05-05T08:37:29.216Z,991.62
2023-05-05T08:38:30.944Z,991.59
2023-05-05T08:39:32.664Z,991.61
2023-05-05T08:40:34.506Z,991.58
2023-05-05T08:41:36.140Z,991.61
2023-05-05T08:42:39.407Z,991.59
2023-05-05T08:43:39.633Z,991.53
2023-05-05T08:44:41.347Z,991.58
2023-05-05T08:45:43.098Z,991.54
2023-05-05T08:46:44.897Z,991.58
2023-05-05T08:47:46.590Z,991.57
2023-05-05T08:48:48.330Z,991.6
2023-05-05T08:49:50.012Z,991.59
2023-05-05T08:50:51.765Z,991.56
2023-05-05T08:51:53.564Z,991.59
2023-05-05T08:52:55.269Z,991.5
2023-05-05T08:53:56.976Z,991.57
2023-05-05T08:54:58.698Z,991.53
2023-05-05T08:56:00.606Z,991.54
2023-05-05T08:57:02.169Z,991.54
2023-05-05T08:58:04.483Z,991.54
2023-05-05T08:59:05.648Z,991.54
2023-05-05T09:00:07.366Z,991.55
2023-05-05T09:01:09.159Z,991.53
2023-05-05T09:02:10.886Z,991.52
2023-05-05T09:03:12.732Z,991.49
2023-05-05T09:04:14.321Z,991.55
2023-05-05T09:05:16.101Z,991.52
2023-05-05T09:06:17.758Z,991.52
2023-05-05T09:07:19.608Z,991.48
2023-05-05T09:08:21.253Z,991.49
2023-05-05T09:09:22.985Z,991.48
2023-05-05T09:10:24.760Z,991.42
2023-05-05T09:11:26.446Z,991.47
2023-05-05T09:12:28.391Z,991.48
2023-05-05T09:13:29.917Z,991.47
2023-05-05T09:14:31.672Z,991.51
2023-05-05T09:15:33.405Z,991.48
2023-05-05T09:16:35.227Z,991.43
2023-05-05T09:17:36.938Z,991.44
2023-05-05T09:18:38.586Z,991.43
2023-05-05T09:19:40.335Z,991.44
2023-05-05T09:20:42.058Z,991.5
2023-05-05T09:21:43.780Z,991.47
2023-05-05T09:22:45.725Z,991.46
2023-05-05T09:23:47.219Z,991.48
2023-05-05T09:24:48.998Z,991.42
2023-05-05T09:25:50.703Z,991.4
2023-05-05T09:26:52.462Z,991.42
2023-05-05T09:27:54.199Z,991.41
2023-05-05T09:28:55.948Z,991.4
2023-05-05T09:29:57.670Z,991.38
2023-05-05T09:30:59.444Z,991.39
2023-05-05T09:32:01.119Z,991.39
2023-05-05T09:33:02.889Z,991.31
2023-05-05T09:34:04.612Z,991.41
2023-05-05T09:35:06.609Z,991.37
2023-05-05T09:36:08.083Z,991.34
2023-05-05T09:37:09.839Z,991.34
2023-05-05T09:38:11.526Z,991.35
2023-05-05T09:39:13.360Z,991.31
2023-05-05T09:40:14.998Z,991.34
2023-05-05T09:41:16.730Z,991.36
2023-05-05T09:42:18.477Z,991.33
2023-05-05T09:43:20.178Z,991.27
2023-05-05T09:44:21.948Z,991.34
2023-05-05T09:45:23.660Z,991.32
2023-05-05T09:46:25.484Z,991.32
2023-05-05T09:47:29.918Z,991.28
2023-05-05T09:48:29.007Z,991.32
2023-05-05T09:49:30.629Z,991.34
2023-05-05T09:50:32.485Z,991.33
2023-05-05T09:51:34.132Z,991.32
2023-05-05T09:52:35.806Z,991.33
2023-05-05T09:53:37.568Z,991.36
2023-05-05T09:54:39.269Z,991.3
2023-05-05T09:55:41.037Z,991.23
2023-05-05T09:56:42.738Z,991.26
2023-05-05T09:57:44.713Z,991.27
2023-05-05T09:58:46.225Z,991.27
2023-05-05T09:59:47.948Z,991.22
2023-05-05T10:00:49.701Z,991.27
2023-05-05T10:01:51.497Z,991.26
2023-05-05T10:02:53.285Z,991.22
2023-05-05T10:03:54.883Z,991.23
2023-05-05T10:04:56.780Z,991.28
2023-05-05T10:05:58.342Z,991.24
2023-05-05T10:07:00.120Z,991.25
2023-05-05T10:08:01.823Z,991.24
2023-05-05T10:09:03.536Z,991.24
2023-05-05T10:10:05.505Z,991.24
2023-05-05T10:11:07.194Z,991.24
2023-05-05T10:12:08.750Z,991.22
2023-05-05T10:13:10.503Z,991.18
2023-05-05T10:14:12.223Z,991.19
2023-05-05T10:15:13.949Z,991.21
2023-05-05T10:16:15.745Z,991.21
2023-05-05T10:17:17.742Z,991.22
2023-05-05T10:18:19.173Z,991.27
2023-05-05T10:19:23.051Z,991.21
2023-05-05T10:21:03.680Z,991.21
2023-05-05T10:22:05.437Z,991.22
2023-05-05T10:23:07.200Z,991.26
2023-05-05T10:24:08.908Z,991.32
2023-05-05T10:25:10.705Z,991.33
2023-05-05T10:26:12.553Z,991.29
2023-05-05T10:27:14.113Z,991.29
2023-05-05T10:28:15.843Z,991.29
2023-05-05T10:29:17.593Z,991.22
2023-05-05T10:30:19.337Z,991.2
2023-05-05T10:31:26.245Z,991.19
2023-05-05T10:32:50.252Z,991.24
2023-05-05T10:34:26.313Z,991.13
2023-05-05T10:35:27.996Z,991.17
2023-05-05T10:36:29.720Z,991.16
2023-05-05T10:37:31.470Z,991.17
2023-05-05T10:38:33.337Z,991.15
2023-05-05T10:39:35.036Z,991.17
2023-05-05T10:40:36.665Z,991.14
2023-05-05T10:41:38.423Z,991.13
2023-05-05T10:42:40.122Z,991.13
2023-05-05T10:43:41.888Z,991.15
2023-05-05T10:44:43.605Z,991.16
2023-05-05T10:45:45.440Z,991.17
2023-05-05T10:46:47.092Z,991.13
2023-05-05T10:47:48.875Z,991.11
2023-05-05T10:48:50.727Z,991.12
2023-05-05T10:49:52.406Z,991.13
2023-05-05T10:50:54.012Z,991.05
2023-05-05T10:51:55.762Z,991.06
2023-05-05T10:52:57.465Z,991.05
2023-05-05T10:53:59.326Z,991.01
2023-05-05T10:55:00.941Z,991.01
2023-05-05T10:56:02.719Z,990.98
2023-05-05T10:57:04.404Z,991
2023-05-05T10:58:06.161Z,990.96
2023-05-05T10:59:07.896Z,991
2023-05-05T11:00:09.704Z,990.98
2023-05-05T11:01:11.357Z,990.96
2023-05-05T11:02:13.089Z,990.94
2023-05-05T11:03:14.957Z,990.93
2023-05-05T11:04:16.591Z,990.94
2023-05-05T11:05:18.643Z,990.95
2023-05-05T11:06:20.005Z,990.88
2023-05-05T11:07:21.745Z,990.89
2023-05-05T11:08:23.545Z,990.88
2023-05-05T11:09:25.232Z,990.92
2023-05-05T11:10:26.955Z,990.9
2023-05-05T11:11:28.694Z,990.9
2023-05-05T11:12:30.712Z,990.91
2023-05-05T11:13:32.145Z,990.9
2023-05-05T11:14:34.068Z,990.9
2023-05-05T11:15:35.630Z,990.87
2023-05-05T11:16:37.416Z,990.85
2023-05-05T11:17:39.140Z,990.9
2023-05-05T11:18:40.822Z,990.8
2023-05-05T11:19:42.587Z,990.85
2023-05-05T11:20:44.288Z,990.83
2023-05-05T11:21:46.010Z,990.81
2023-05-05T11:22:47.758Z,990.76
2023-05-05T11:23:49.519Z,990.77
2023-05-05T11:24:51.235Z,990.76
2023-05-05T11:25:52.965Z,990.77
2023-05-05T11:26:54.805Z,990.75
2023-05-05T11:27:56.470Z,990.71
2023-05-05T11:28:58.180Z,990.73
2023-05-05T11:29:59.902Z,990.75
2023-05-05T11:31:01.761Z,990.69
2023-05-05T11:32:03.360Z,990.68
2023-05-05T11:33:05.207Z,990.7
2023-05-05T11:34:06.865Z,990.71
2023-05-05T11:35:08.580Z,990.73
2023-05-05T11:36:10.749Z,990.63
2023-05-05T11:37:12.017Z,990.61
2023-05-05T11:38:13.766Z,990.62
2023-05-05T11:39:15.496Z,990.6
2023-05-05T11:40:17.220Z,990.6
2023-05-05T11:41:18.968Z,990.55
2023-05-05T11:42:20.686Z,990.55
2023-05-05T11:43:22.555Z,990.51
2023-05-05T11:44:24.249Z,990.47
2023-05-05T11:45:25.869Z,990.46
2023-05-05T11:46:27.664Z,990.44
2023-05-05T11:47:29.459Z,990.39
2023-05-05T11:48:31.086Z,990.37
2023-05-05T11:49:32.844Z,990.33
2023-05-05T11:50:34.682Z,990.39
2023-05-05T11:51:36.312Z,990.39
2023-05-05T11:52:38.048Z,990.4
2023-05-05T11:53:39.781Z,990.35
2023-05-05T11:54:41.499Z,990.37
2023-05-05T11:55:43.255Z,990.37
2023-05-05T11:56:44.990Z,990.35
2023-05-05T11:57:46.707Z,990.28
2023-05-05T11:58:48.476Z,990.32
2023-05-05T11:59:50.184Z,990.32
2023-05-05T12:00:51.929Z,990.33
2023-05-05T12:01:53.710Z,990.29
2023-05-05T12:02:55.493Z,990.28
2023-05-05T12:11:57.710Z,990.3
2023-05-05T12:12:58.678Z,990.3
2023-05-05T12:14:00.376Z,990.26
2023-05-05T12:15:02.091Z,990.24
2023-05-05T12:16:03.930Z,990.29
2023-05-05T12:17:05.582Z,990.28
2023-05-05T12:18:07.347Z,990.29
2023-05-05T12:19:09.018Z,990.29
2023-05-05T12:20:11.271Z,990.25
2023-05-05T12:21:12.496Z,990.28
2023-05-05T12:22:14.236Z,990.29
2023-05-05T12:23:15.973Z,990.26
2023-05-05T12:24:17.731Z,990.3
2023-05-05T12:25:32.817Z,990.28
2023-05-05T12:26:34.604Z,990.32
2023-05-05T12:27:36.401Z,990.31
2023-05-05T12:28:38.049Z,990.33
2023-05-05T12:29:39.800Z,990.39
2023-05-05T12:30:41.537Z,990.38
2023-05-05T12:31:43.295Z,990.4
2023-05-05T12:32:45.032Z,990.37
2023-05-05T12:33:47.951Z,990.36
2023-05-05T12:34:48.466Z,990.35
2023-05-05T12:35:50.184Z,990.35
2023-05-05T12:36:51.939Z,990.31
2023-05-05T12:37:53.644Z,990.31
2023-05-05T12:38:55.507Z,990.31
2023-05-05T12:39:57.145Z,990.29
2023-05-05T12:40:58.877Z,990.31
2023-05-05T12:42:00.592Z,990.26
2023-05-05T12:43:02.296Z,990.3
2023-05-05T12:44:04.071Z,990.29
2023-05-05T12:45:05.808Z,990.24
2023-05-05T12:46:07.603Z,990.25
2023-05-05T12:47:09.258Z,990.27
2023-05-05T12:48:10.998Z,990.24
2023-05-05T12:49:12.727Z,990.24
2023-05-05T12:50:14.490Z,990.19
2023-05-05T12:51:16.427Z,990.23
2023-05-05T12:52:17.930Z,990.19
2023-05-05T12:53:19.666Z,990.15
2023-05-05T12:54:21.398Z,990.14
2023-05-05T12:55:23.144Z,990.13
2023-05-05T12:56:24.901Z,990.14
2023-05-05T12:57:26.598Z,990.13
2023-05-05T12:58:28.316Z,990.04
2023-05-05T12:59:30.075Z,990.01
2023-05-05T13:00:31.840Z,989.99
2023-05-05T13:01:33.581Z,989.97
2023-05-05T13:02:35.402Z,989.93
2023-05-05T13:03:37.077Z,989.88
2023-05-05T13:04:38.723Z,989.89
2023-05-05T13:05:40.475Z,989.84
2023-05-05T13:06:42.209Z,989.86
2023-05-05T13:07:43.930Z,989.8
2023-05-05T13:08:45.660Z,989.83
2023-05-05T13:09:47.504Z,989.81
2023-05-05T13:10:49.122Z,989.76
2023-05-05T13:11:50.876Z,989.75
2023-05-05T13:12:52.679Z,989.75